sensor_id;sensor_type;location;lat;lon;timestamp;temperature;humidity
37242;DHT22;23135;51.078;12.108;2023-04-07T00:01:27;1.00;99.90
37242;DHT22;23135;51.078;12.108;2023-04-07T00:03:53;0.90;99.90
37242;DHT22;23135;51.078;12.108;2023-04-07T00:06:18;0.90;99.90
37242;DHT22;23135;51.078;12.108;2023-04-07T00:08:44;1.00;99.90
37242;DHT22;23135;51.078;12.108;2023-04-07T00:11:10;1.20;99.90
37242;DHT22;23135;51.078;12.108;2023-04-07T00:13:35;1.40;99.90
37242;DHT22;23135;51.078;12.108;2023-04-07T00:16:01;1.50;99.90
37242;DHT22;23135;51.078;12.108;2023-04-07T00:18:26;1.50;99.90
37242;DHT22;23135;51.078;12.108;2023-04-07T00:20:52;1.30;99.90
37242;DHT22;23135;51.078;12.108;2023-04-07T00:23:17;1.10;99.90
37242;DHT22;23135;51.078;12.108;2023-04-07T00:25:44;1.10;99.90
37242;DHT22;23135;51.078;12.108;2023-04-07T00:28:09;1.20;99.90
37242;DHT22;23135;51.078;12.108;2023-04-07T00:30:35;1.20;99.90
37242;DHT22;23135;51.078;12.108;2023-04-07T00:33:00;1.20;99.90
37242;DHT22;23135;51.078;12.108;2023-04-07T00:35:26;1.20;99.90
37242;DHT22;23135;51.078;12.108;2023-04-07T00:37:51;1.20;99.90
37242;DHT22;23135;51.078;12.108;2023-04-07T00:40:17;1.20;99.90
37242;DHT22;23135;51.078;12.108;2023-04-07T00:42:43;1.20;99.90
37242;DHT22;23135;51.078;12.108;2023-04-07T00:45:09;1.10;99.90
37242;DHT22;23135;51.078;12.108;2023-04-07T00:47:35;1.10;99.90
37242;DHT22;23135;51.078;12.108;2023-04-07T00:50:03;1.00;99.90
37242;DHT22;23135;51.078;12.108;2023-04-07T00:52:28;0.90;99.90
37242;DHT22;23135;51.078;12.108;2023-04-07T00:54:54;1.00;99.90
37242;DHT22;23135;51.078;12.108;2023-04-07T00:57:20;1.00;99.90
37242;DHT22;23135;51.078;12.108;2023-04-07T00:59:53;1.00;99.90
37242;DHT22;23135;51.078;12.108;2023-04-07T01:02:35;0.90;99.90
37242;DHT22;23135;51.078;12.108;2023-04-07T01:05:12;0.90;99.90
37242;DHT22;23135;51.078;12.108;2023-04-07T01:07:57;0.80;99.90
37242;DHT22;23135;51.078;12.108;2023-04-07T01:10:55;0.80;99.90
37242;DHT22;23135;51.078;12.108;2023-04-07T01:13:36;0.80;99.90
37242;DHT22;23135;51.078;12.108;2023-04-07T01:16:12;0.60;99.90
37242;DHT22;23135;51.078;12.108;2023-04-07T01:18:40;0.50;99.90
37242;DHT22;23135;51.078;12.108;2023-04-07T01:21:18;0.40;99.90
37242;DHT22;23135;51.078;12.108;2023-04-07T01:26:50;0.10;99.90
37242;DHT22;23135;51.078;12.108;2023-04-07T01:29:33;-0.10;99.90
37242;DHT22;23135;51.078;12.108;2023-04-07T01:32:01;-0.20;99.90
37242;DHT22;23135;51.078;12.108;2023-04-07T01:34:30;-0.10;99.90
37242;DHT22;23135;51.078;12.108;2023-04-07T01:36:58;-0.10;99.90
37242;DHT22;23135;51.078;12.108;2023-04-07T01:39:26;-0.10;99.90
37242;DHT22;23135;51.078;12.108;2023-04-07T01:41:54;0.00;99.90
37242;DHT22;23135;51.078;12.108;2023-04-07T01:44:20;0.20;99.90
37242;DHT22;23135;51.078;12.108;2023-04-07T01:46:47;0.30;99.90
37242;DHT22;23135;51.078;12.108;2023-04-07T01:49:15;0.40;99.90
37242;DHT22;23135;51.078;12.108;2023-04-07T01:51:42;0.40;99.90
37242;DHT22;23135;51.078;12.108;2023-04-07T01:54:08;0.40;99.90
37242;DHT22;23135;51.078;12.108;2023-04-07T01:56:34;0.30;99.90
37242;DHT22;23135;51.078;12.108;2023-04-07T01:59:00;0.30;99.90
37242;DHT22;23135;51.078;12.108;2023-04-07T02:01:25;0.30;99.90
37242;DHT22;23135;51.078;12.108;2023-04-07T02:04:11;0.10;99.90
37242;DHT22;23135;51.078;12.108;2023-04-07T02:06:51;-0.20;99.90
37242;DHT22;23135;51.078;12.108;2023-04-07T02:09:19;-0.30;99.90
37242;DHT22;23135;51.078;12.108;2023-04-07T02:11:45;-0.30;99.90
37242;DHT22;23135;51.078;12.108;2023-04-07T02:14:13;-0.30;99.90
37242;DHT22;23135;51.078;12.108;2023-04-07T02:16:40;-0.20;99.90
37242;DHT22;23135;51.078;12.108;2023-04-07T02:19:07;-0.30;99.90
37242;DHT22;23135;51.078;12.108;2023-04-07T02:21:34;-0.30;99.90
37242;DHT22;23135;51.078;12.108;2023-04-07T02:24:10;-0.30;99.90
37242;DHT22;23135;51.078;12.108;2023-04-07T02:26:36;-0.20;99.90
37242;DHT22;23135;51.078;12.108;2023-04-07T02:29:03;-0.10;99.90
37242;DHT22;23135;51.078;12.108;2023-04-07T02:31:28;-0.10;99.90
37242;DHT22;23135;51.078;12.108;2023-04-07T02:33:54;-0.20;99.90
37242;DHT22;23135;51.078;12.108;2023-04-07T02:36:20;-0.20;99.90
37242;DHT22;23135;51.078;12.108;2023-04-07T02:38:45;-0.30;99.90
37242;DHT22;23135;51.078;12.108;2023-04-07T02:41:11;-0.40;99.90
37242;DHT22;23135;51.078;12.108;2023-04-07T02:43:36;-0.40;99.90
37242;DHT22;23135;51.078;12.108;2023-04-07T02:46:02;-0.40;99.90
37242;DHT22;23135;51.078;12.108;2023-04-07T02:48:27;-0.40;99.90
37242;DHT22;23135;51.078;12.108;2023-04-07T02:50:53;-0.40;99.90
37242;DHT22;23135;51.078;12.108;2023-04-07T02:53:18;-0.50;99.90
37242;DHT22;23135;51.078;12.108;2023-04-07T02:55:45;-0.50;99.90
37242;DHT22;23135;51.078;12.108;2023-04-07T02:58:10;-0.50;99.90
37242;DHT22;23135;51.078;12.108;2023-04-07T03:00:36;-0.60;99.90
37242;DHT22;23135;51.078;12.108;2023-04-07T03:03:01;-0.70;99.90
37242;DHT22;23135;51.078;12.108;2023-04-07T03:05:27;-0.70;99.90
37242;DHT22;23135;51.078;12.108;2023-04-07T03:07:52;-0.80;99.90
37242;DHT22;23135;51.078;12.108;2023-04-07T03:10:18;-0.80;99.90
37242;DHT22;23135;51.078;12.108;2023-04-07T03:12:43;-0.90;99.90
37242;DHT22;23135;51.078;12.108;2023-04-07T03:15:09;-1.00;99.90
37242;DHT22;23135;51.078;12.108;2023-04-07T03:17:35;-0.90;99.90
37242;DHT22;23135;51.078;12.108;2023-04-07T03:20:00;-0.90;99.90
37242;DHT22;23135;51.078;12.108;2023-04-07T03:22:26;-0.90;99.90
37242;DHT22;23135;51.078;12.108;2023-04-07T03:24:52;-0.90;99.90
37242;DHT22;23135;51.078;12.108;2023-04-07T03:27:17;-0.90;99.90
37242;DHT22;23135;51.078;12.108;2023-04-07T03:29:44;-0.80;99.90
37242;DHT22;23135;51.078;12.108;2023-04-07T03:32:11;-0.70;99.90
37242;DHT22;23135;51.078;12.108;2023-04-07T03:34:37;-0.60;99.90
37242;DHT22;23135;51.078;12.108;2023-04-07T03:37:02;-0.50;99.90
37242;DHT22;23135;51.078;12.108;2023-04-07T03:39:28;-0.50;99.90
37242;DHT22;23135;51.078;12.108;2023-04-07T03:41:53;-0.40;99.90
37242;DHT22;23135;51.078;12.108;2023-04-07T03:44:19;-0.40;99.90
37242;DHT22;23135;51.078;12.108;2023-04-07T03:46:44;-0.40;99.90
37242;DHT22;23135;51.078;12.108;2023-04-07T03:49:11;-0.40;99.90
37242;DHT22;23135;51.078;12.108;2023-04-07T03:51:36;-0.50;99.90
37242;DHT22;23135;51.078;12.108;2023-04-07T03:54:02;-0.50;99.90
37242;DHT22;23135;51.078;12.108;2023-04-07T03:56:28;-0.60;99.90
37242;DHT22;23135;51.078;12.108;2023-04-07T03:58:54;-0.70;99.90
37242;DHT22;23135;51.078;12.108;2023-04-07T04:01:19;-0.70;99.90
37242;DHT22;23135;51.078;12.108;2023-04-07T04:03:45;-0.60;99.90
37242;DHT22;23135;51.078;12.108;2023-04-07T04:06:11;-0.70;99.90
37242;DHT22;23135;51.078;12.108;2023-04-07T04:08:36;-0.70;99.90
37242;DHT22;23135;51.078;12.108;2023-04-07T04:11:02;-0.80;99.90
37242;DHT22;23135;51.078;12.108;2023-04-07T04:13:28;-0.80;99.90
37242;DHT22;23135;51.078;12.108;2023-04-07T04:15:53;-0.80;99.90
37242;DHT22;23135;51.078;12.108;2023-04-07T04:18:19;-0.80;99.90
37242;DHT22;23135;51.078;12.108;2023-04-07T04:20:45;-0.80;99.90
37242;DHT22;23135;51.078;12.108;2023-04-07T04:23:12;-0.80;99.90
37242;DHT22;23135;51.078;12.108;2023-04-07T04:25:37;-0.80;99.90
37242;DHT22;23135;51.078;12.108;2023-04-07T04:28:05;-0.80;99.90
37242;DHT22;23135;51.078;12.108;2023-04-07T04:30:31;-0.80;99.90
37242;DHT22;23135;51.078;12.108;2023-04-07T04:32:56;-0.80;99.90
37242;DHT22;23135;51.078;12.108;2023-04-07T04:35:22;-0.90;99.90
37242;DHT22;23135;51.078;12.108;2023-04-07T04:37:48;-0.80;99.90
37242;DHT22;23135;51.078;12.108;2023-04-07T04:40:13;-0.80;99.90
37242;DHT22;23135;51.078;12.108;2023-04-07T04:42:39;-0.90;99.90
37242;DHT22;23135;51.078;12.108;2023-04-07T04:45:05;-0.90;99.90
37242;DHT22;23135;51.078;12.108;2023-04-07T04:47:31;-0.90;99.90
37242;DHT22;23135;51.078;12.108;2023-04-07T04:49:57;-1.00;99.90
37242;DHT22;23135;51.078;12.108;2023-04-07T04:52:22;-1.00;99.90
37242;DHT22;23135;51.078;12.108;2023-04-07T04:54:48;-1.00;99.90
37242;DHT22;23135;51.078;12.108;2023-04-07T04:57:13;-1.00;99.90
37242;DHT22;23135;51.078;12.108;2023-04-07T04:59:39;-0.80;99.90
37242;DHT22;23135;51.078;12.108;2023-04-07T05:02:04;-0.70;99.90
37242;DHT22;23135;51.078;12.108;2023-04-07T05:04:30;-0.50;99.90
37242;DHT22;23135;51.078;12.108;2023-04-07T05:06:55;-0.30;99.90
37242;DHT22;23135;51.078;12.108;2023-04-07T05:09:21;-0.40;99.90
37242;DHT22;23135;51.078;12.108;2023-04-07T05:11:47;-0.50;99.90
37242;DHT22;23135;51.078;12.108;2023-04-07T05:14:13;-0.40;99.90
37242;DHT22;23135;51.078;12.108;2023-04-07T05:16:38;-0.40;99.90
37242;DHT22;23135;51.078;12.108;2023-04-07T05:19:04;-0.20;99.90
37242;DHT22;23135;51.078;12.108;2023-04-07T05:21:29;0.00;99.90
37242;DHT22;23135;51.078;12.108;2023-04-07T05:23:55;0.20;99.90
37242;DHT22;23135;51.078;12.108;2023-04-07T05:26:21;0.30;99.90
37242;DHT22;23135;51.078;12.108;2023-04-07T05:28:46;0.30;99.90
37242;DHT22;23135;51.078;12.108;2023-04-07T05:31:12;0.40;99.90
37242;DHT22;23135;51.078;12.108;2023-04-07T05:33:38;0.60;99.90
37242;DHT22;23135;51.078;12.108;2023-04-07T05:36:03;0.90;99.90
37242;DHT22;23135;51.078;12.108;2023-04-07T05:38:29;1.20;99.90
37242;DHT22;23135;51.078;12.108;2023-04-07T05:40:54;1.40;99.90
37242;DHT22;23135;51.078;12.108;2023-04-07T05:43:20;1.40;99.90
37242;DHT22;23135;51.078;12.108;2023-04-07T05:45:46;1.60;99.90
37242;DHT22;23135;51.078;12.108;2023-04-07T05:48:12;1.80;99.90
37242;DHT22;23135;51.078;12.108;2023-04-07T05:50:37;1.80;99.90
37242;DHT22;23135;51.078;12.108;2023-04-07T05:53:03;1.50;99.90
37242;DHT22;23135;51.078;12.108;2023-04-07T05:55:28;1.30;99.90
37242;DHT22;23135;51.078;12.108;2023-04-07T05:57:54;1.20;99.90
37242;DHT22;23135;51.078;12.108;2023-04-07T06:00:19;1.20;99.90
37242;DHT22;23135;51.078;12.108;2023-04-07T06:02:45;1.30;99.90
37242;DHT22;23135;51.078;12.108;2023-04-07T06:05:11;1.30;99.90
37242;DHT22;23135;51.078;12.108;2023-04-07T06:07:37;1.40;99.90
37242;DHT22;23135;51.078;12.108;2023-04-07T06:10:02;1.50;99.90
37242;DHT22;23135;51.078;12.108;2023-04-07T06:12:28;1.60;99.90
37242;DHT22;23135;51.078;12.108;2023-04-07T06:14:54;1.70;99.90
37242;DHT22;23135;51.078;12.108;2023-04-07T06:17:20;1.70;99.90
37242;DHT22;23135;51.078;12.108;2023-04-07T06:19:46;1.80;99.90
37242;DHT22;23135;51.078;12.108;2023-04-07T06:22:12;1.80;99.90
37242;DHT22;23135;51.078;12.108;2023-04-07T06:24:37;1.90;99.90
37242;DHT22;23135;51.078;12.108;2023-04-07T06:27:03;2.00;99.90
37242;DHT22;23135;51.078;12.108;2023-04-07T06:29:29;2.00;99.90
37242;DHT22;23135;51.078;12.108;2023-04-07T06:31:56;2.10;99.90
37242;DHT22;23135;51.078;12.108;2023-04-07T06:34:22;2.20;99.90
37242;DHT22;23135;51.078;12.108;2023-04-07T06:36:47;2.30;99.90
37242;DHT22;23135;51.078;12.108;2023-04-07T06:39:13;2.30;99.90
37242;DHT22;23135;51.078;12.108;2023-04-07T06:41:39;2.30;99.90
37242;DHT22;23135;51.078;12.108;2023-04-07T06:44:08;2.30;99.90
37242;DHT22;23135;51.078;12.108;2023-04-07T06:46:34;2.50;99.90
37242;DHT22;23135;51.078;12.108;2023-04-07T06:49:00;2.60;99.90
37242;DHT22;23135;51.078;12.108;2023-04-07T06:51:26;2.70;99.90
37242;DHT22;23135;51.078;12.108;2023-04-07T06:53:52;2.80;99.90
37242;DHT22;23135;51.078;12.108;2023-04-07T06:56:17;3.00;99.90
37242;DHT22;23135;51.078;12.108;2023-04-07T06:58:43;3.30;99.90
37242;DHT22;23135;51.078;12.108;2023-04-07T07:01:08;3.70;99.90
37242;DHT22;23135;51.078;12.108;2023-04-07T07:03:34;4.20;99.90
37242;DHT22;23135;51.078;12.108;2023-04-07T07:06:00;4.50;99.90
37242;DHT22;23135;51.078;12.108;2023-04-07T07:08:27;4.80;99.90
37242;DHT22;23135;51.078;12.108;2023-04-07T07:10:53;5.20;99.90
37242;DHT22;23135;51.078;12.108;2023-04-07T07:13:22;5.40;99.90
37242;DHT22;23135;51.078;12.108;2023-04-07T07:15:48;5.60;99.90
37242;DHT22;23135;51.078;12.108;2023-04-07T07:18:14;5.90;99.90
37242;DHT22;23135;51.078;12.108;2023-04-07T07:20:40;6.20;99.90
37242;DHT22;23135;51.078;12.108;2023-04-07T07:23:05;6.60;99.90
37242;DHT22;23135;51.078;12.108;2023-04-07T07:25:31;7.00;99.90
37242;DHT22;23135;51.078;12.108;2023-04-07T07:27:57;7.20;99.90
37242;DHT22;23135;51.078;12.108;2023-04-07T07:30:23;7.30;99.90
37242;DHT22;23135;51.078;12.108;2023-04-07T07:32:49;7.60;99.90
37242;DHT22;23135;51.078;12.108;2023-04-07T07:35:15;8.10;99.90
37242;DHT22;23135;51.078;12.108;2023-04-07T07:37:41;8.50;99.90
37242;DHT22;23135;51.078;12.108;2023-04-07T07:40:08;8.70;99.90
37242;DHT22;23135;51.078;12.108;2023-04-07T07:42:34;9.00;99.90
37242;DHT22;23135;51.078;12.108;2023-04-07T07:45:00;9.30;99.90
37242;DHT22;23135;51.078;12.108;2023-04-07T07:47:25;9.50;99.90
37242;DHT22;23135;51.078;12.108;2023-04-07T07:49:51;9.70;99.90
37242;DHT22;23135;51.078;12.108;2023-04-07T07:52:17;10.20;99.90
37242;DHT22;23135;51.078;12.108;2023-04-07T07:54:42;10.60;99.90
37242;DHT22;23135;51.078;12.108;2023-04-07T07:57:08;10.70;99.90
37242;DHT22;23135;51.078;12.108;2023-04-07T07:59:33;10.90;99.90
37242;DHT22;23135;51.078;12.108;2023-04-07T08:01:59;10.80;99.90
37242;DHT22;23135;51.078;12.108;2023-04-07T08:04:25;10.80;99.90
37242;DHT22;23135;51.078;12.108;2023-04-07T08:06:51;10.80;99.90
37242;DHT22;23135;51.078;12.108;2023-04-07T08:09:18;10.90;99.90
37242;DHT22;23135;51.078;12.108;2023-04-07T08:11:44;11.10;99.90
37242;DHT22;23135;51.078;12.108;2023-04-07T08:14:09;11.10;99.90
37242;DHT22;23135;51.078;12.108;2023-04-07T08:16:35;11.10;99.90
37242;DHT22;23135;51.078;12.108;2023-04-07T08:19:00;11.10;99.90
37242;DHT22;23135;51.078;12.108;2023-04-07T08:21:27;11.10;99.20
37242;DHT22;23135;51.078;12.108;2023-04-07T08:23:53;11.30;98.90
37242;DHT22;23135;51.078;12.108;2023-04-07T08:26:19;11.50;99.20
37242;DHT22;23135;51.078;12.108;2023-04-07T08:28:46;11.40;99.10
37242;DHT22;23135;51.078;12.108;2023-04-07T08:31:11;11.30;98.70
37242;DHT22;23135;51.078;12.108;2023-04-07T08:33:37;11.40;99.40
37242;DHT22;23135;51.078;12.108;2023-04-07T08:36:03;11.50;98.80
37242;DHT22;23135;51.078;12.108;2023-04-07T08:38:28;11.60;99.10
37242;DHT22;23135;51.078;12.108;2023-04-07T08:41:03;11.70;99.10
37242;DHT22;23135;51.078;12.108;2023-04-07T08:43:29;11.60;97.90
37242;DHT22;23135;51.078;12.108;2023-04-07T08:45:56;11.70;97.80
37242;DHT22;23135;51.078;12.108;2023-04-07T08:48:23;11.70;98.00
37242;DHT22;23135;51.078;12.108;2023-04-07T08:50:53;11.80;98.00
37242;DHT22;23135;51.078;12.108;2023-04-07T08:53:25;11.70;97.30
37242;DHT22;23135;51.078;12.108;2023-04-07T08:55:55;11.70;98.30
37242;DHT22;23135;51.078;12.108;2023-04-07T08:58:20;11.60;97.60
37242;DHT22;23135;51.078;12.108;2023-04-07T09:00:46;11.60;97.50
37242;DHT22;23135;51.078;12.108;2023-04-07T09:03:17;11.70;96.80
37242;DHT22;23135;51.078;12.108;2023-04-07T09:05:44;11.80;96.90
37242;DHT22;23135;51.078;12.108;2023-04-07T09:08:10;11.90;96.90
37242;DHT22;23135;51.078;12.108;2023-04-07T09:10:36;11.90;97.80
37242;DHT22;23135;51.078;12.108;2023-04-07T09:13:02;12.00;96.70
37242;DHT22;23135;51.078;12.108;2023-04-07T09:15:31;12.00;97.20
37242;DHT22;23135;51.078;12.108;2023-04-07T09:17:57;12.00;96.70
37242;DHT22;23135;51.078;12.108;2023-04-07T09:20:23;12.00;96.40
37242;DHT22;23135;51.078;12.108;2023-04-07T09:22:50;12.20;95.50
37242;DHT22;23135;51.078;12.108;2023-04-07T09:25:23;12.30;95.50
37242;DHT22;23135;51.078;12.108;2023-04-07T09:28:02;12.50;94.90
37242;DHT22;23135;51.078;12.108;2023-04-07T09:30:29;12.10;93.40
37242;DHT22;23135;51.078;12.108;2023-04-07T09:32:56;12.10;93.70
37242;DHT22;23135;51.078;12.108;2023-04-07T09:35:22;12.30;93.60
37242;DHT22;23135;51.078;12.108;2023-04-07T09:38:02;12.40;94.60
37242;DHT22;23135;51.078;12.108;2023-04-07T09:40:28;12.40;92.90
37242;DHT22;23135;51.078;12.108;2023-04-07T09:42:54;12.30;93.80
37242;DHT22;23135;51.078;12.108;2023-04-07T09:45:28;12.30;92.30
37242;DHT22;23135;51.078;12.108;2023-04-07T09:47:54;12.30;93.00
37242;DHT22;23135;51.078;12.108;2023-04-07T09:53:01;12.30;93.10
37242;DHT22;23135;51.078;12.108;2023-04-07T09:55:28;12.60;92.90
37242;DHT22;23135;51.078;12.108;2023-04-07T09:57:54;12.60;92.80
37242;DHT22;23135;51.078;12.108;2023-04-07T10:00:21;12.80;92.90
37242;DHT22;23135;51.078;12.108;2023-04-07T10:02:47;12.80;91.80
37242;DHT22;23135;51.078;12.108;2023-04-07T10:05:13;12.60;92.40
37242;DHT22;23135;51.078;12.108;2023-04-07T10:07:39;12.70;91.90
37242;DHT22;23135;51.078;12.108;2023-04-07T10:10:06;12.70;91.10
37242;DHT22;23135;51.078;12.108;2023-04-07T10:12:34;12.70;91.70
37242;DHT22;23135;51.078;12.108;2023-04-07T10:15:01;12.80;91.30
37242;DHT22;23135;51.078;12.108;2023-04-07T10:17:27;12.90;91.60
37242;DHT22;23135;51.078;12.108;2023-04-07T10:19:56;12.80;91.20
37242;DHT22;23135;51.078;12.108;2023-04-07T10:22:22;12.70;89.80
37242;DHT22;23135;51.078;12.108;2023-04-07T10:25:01;12.90;90.30
37242;DHT22;23135;51.078;12.108;2023-04-07T10:27:34;13.30;90.10
37242;DHT22;23135;51.078;12.108;2023-04-07T10:30:03;13.20;90.30
37242;DHT22;23135;51.078;12.108;2023-04-07T10:32:30;13.20;91.70
37242;DHT22;23135;51.078;12.108;2023-04-07T10:34:57;13.40;90.80
37242;DHT22;23135;51.078;12.108;2023-04-07T10:37:24;13.50;90.10
37242;DHT22;23135;51.078;12.108;2023-04-07T10:42:44;13.00;90.70
37242;DHT22;23135;51.078;12.108;2023-04-07T10:45:11;13.00;91.70
37242;DHT22;23135;51.078;12.108;2023-04-07T10:50:22;13.30;90.10
37242;DHT22;23135;51.078;12.108;2023-04-07T10:53:03;13.50;88.50
37242;DHT22;23135;51.078;12.108;2023-04-07T10:55:42;13.60;88.10
37242;DHT22;23135;51.078;12.108;2023-04-07T10:58:17;13.80;87.80
37242;DHT22;23135;51.078;12.108;2023-04-07T11:03:39;13.60;87.60
37242;DHT22;23135;51.078;12.108;2023-04-07T11:06:10;13.50;89.50
37242;DHT22;23135;51.078;12.108;2023-04-07T11:08:44;13.30;87.90
37242;DHT22;23135;51.078;12.108;2023-04-07T11:11:11;13.30;88.40
37242;DHT22;23135;51.078;12.108;2023-04-07T11:13:45;13.40;87.20
37242;DHT22;23135;51.078;12.108;2023-04-07T11:16:11;13.60;86.20
37242;DHT22;23135;51.078;12.108;2023-04-07T11:18:38;13.90;88.20
37242;DHT22;23135;51.078;12.108;2023-04-07T11:21:05;14.40;89.00
37242;DHT22;23135;51.078;12.108;2023-04-07T11:23:42;14.70;86.10
37242;DHT22;23135;51.078;12.108;2023-04-07T11:26:09;14.70;85.30
37242;DHT22;23135;51.078;12.108;2023-04-07T11:28:47;14.30;86.10
37242;DHT22;23135;51.078;12.108;2023-04-07T11:31:26;14.20;87.60
37242;DHT22;23135;51.078;12.108;2023-04-07T11:34:00;14.10;84.90
37242;DHT22;23135;51.078;12.108;2023-04-07T11:36:37;13.90;87.40
37242;DHT22;23135;51.078;12.108;2023-04-07T11:39:03;13.90;86.40
37242;DHT22;23135;51.078;12.108;2023-04-07T11:41:30;14.20;88.50
37242;DHT22;23135;51.078;12.108;2023-04-07T11:44:04;14.60;86.60
37242;DHT22;23135;51.078;12.108;2023-04-07T11:46:30;14.60;86.20
37242;DHT22;23135;51.078;12.108;2023-04-07T11:49:10;14.70;87.10
37242;DHT22;23135;51.078;12.108;2023-04-07T11:51:36;14.60;85.90
37242;DHT22;23135;51.078;12.108;2023-04-07T11:54:02;14.70;86.70
37242;DHT22;23135;51.078;12.108;2023-04-07T11:56:28;14.90;83.60
37242;DHT22;23135;51.078;12.108;2023-04-07T11:58:54;15.50;86.90
37242;DHT22;23135;51.078;12.108;2023-04-07T12:01:21;15.90;82.60
37242;DHT22;23135;51.078;12.108;2023-04-07T12:03:58;16.20;85.10
37242;DHT22;23135;51.078;12.108;2023-04-07T12:06:28;16.50;84.60
37242;DHT22;23135;51.078;12.108;2023-04-07T12:08:55;16.10;84.40
37242;DHT22;23135;51.078;12.108;2023-04-07T12:11:20;15.70;86.30
37242;DHT22;23135;51.078;12.108;2023-04-07T12:13:46;15.00;85.20
37242;DHT22;23135;51.078;12.108;2023-04-07T12:16:11;14.80;84.40
37242;DHT22;23135;51.078;12.108;2023-04-07T12:18:37;15.10;85.60
37242;DHT22;23135;51.078;12.108;2023-04-07T12:21:03;15.30;84.20
37242;DHT22;23135;51.078;12.108;2023-04-07T12:23:28;15.60;86.10
37242;DHT22;23135;51.078;12.108;2023-04-07T12:25:54;15.90;85.40
37242;DHT22;23135;51.078;12.108;2023-04-07T12:28:20;15.80;83.20
37242;DHT22;23135;51.078;12.108;2023-04-07T12:30:46;15.80;84.30
37242;DHT22;23135;51.078;12.108;2023-04-07T12:33:11;15.70;84.70
37242;DHT22;23135;51.078;12.108;2023-04-07T12:35:37;15.60;82.80
37242;DHT22;23135;51.078;12.108;2023-04-07T12:38:03;15.50;80.80
37242;DHT22;23135;51.078;12.108;2023-04-07T12:40:29;15.20;78.00
37242;DHT22;23135;51.078;12.108;2023-04-07T12:42:56;14.90;79.00
37242;DHT22;23135;51.078;12.108;2023-04-07T12:45:23;14.70;81.40
37242;DHT22;23135;51.078;12.108;2023-04-07T12:47:48;14.80;79.50
37242;DHT22;23135;51.078;12.108;2023-04-07T12:50:14;14.80;77.80
37242;DHT22;23135;51.078;12.108;2023-04-07T12:52:40;14.90;77.80
37242;DHT22;23135;51.078;12.108;2023-04-07T12:55:06;15.00;82.50
37242;DHT22;23135;51.078;12.108;2023-04-07T12:57:32;14.80;82.50
37242;DHT22;23135;51.078;12.108;2023-04-07T12:59:57;14.40;81.80
37242;DHT22;23135;51.078;12.108;2023-04-07T13:02:23;14.20;82.10
37242;DHT22;23135;51.078;12.108;2023-04-07T13:04:48;14.10;81.10
37242;DHT22;23135;51.078;12.108;2023-04-07T13:07:14;14.20;81.10
37242;DHT22;23135;51.078;12.108;2023-04-07T13:09:41;14.40;81.40
37242;DHT22;23135;51.078;12.108;2023-04-07T13:12:11;14.10;80.80
37242;DHT22;23135;51.078;12.108;2023-04-07T13:14:38;14.10;83.80
37242;DHT22;23135;51.078;12.108;2023-04-07T13:17:05;14.10;82.60
37242;DHT22;23135;51.078;12.108;2023-04-07T13:19:30;14.20;82.00
37242;DHT22;23135;51.078;12.108;2023-04-07T13:21:56;14.20;83.30
37242;DHT22;23135;51.078;12.108;2023-04-07T13:24:22;14.00;79.90
37242;DHT22;23135;51.078;12.108;2023-04-07T13:26:47;13.90;82.50
37242;DHT22;23135;51.078;12.108;2023-04-07T13:29:13;13.70;82.40
37242;DHT22;23135;51.078;12.108;2023-04-07T13:31:39;13.60;81.80
37242;DHT22;23135;51.078;12.108;2023-04-07T13:34:04;13.50;80.90
37242;DHT22;23135;51.078;12.108;2023-04-07T13:36:30;13.40;81.90
37242;DHT22;23135;51.078;12.108;2023-04-07T13:38:55;13.30;80.90
37242;DHT22;23135;51.078;12.108;2023-04-07T13:41:22;13.40;83.10
37242;DHT22;23135;51.078;12.108;2023-04-07T13:43:48;13.60;84.10
37242;DHT22;23135;51.078;12.108;2023-04-07T13:46:13;13.60;79.60
37242;DHT22;23135;51.078;12.108;2023-04-07T13:48:46;13.40;80.10
37242;DHT22;23135;51.078;12.108;2023-04-07T13:51:12;13.80;77.50
37242;DHT22;23135;51.078;12.108;2023-04-07T13:53:37;13.70;79.80
37242;DHT22;23135;51.078;12.108;2023-04-07T13:56:03;13.70;83.50
37242;DHT22;23135;51.078;12.108;2023-04-07T13:58:32;13.70;83.60
37242;DHT22;23135;51.078;12.108;2023-04-07T14:00:58;13.60;82.40
37242;DHT22;23135;51.078;12.108;2023-04-07T14:03:23;13.80;82.00
37242;DHT22;23135;51.078;12.108;2023-04-07T14:05:49;13.80;81.70
37242;DHT22;23135;51.078;12.108;2023-04-07T14:08:15;13.60;82.70
37242;DHT22;23135;51.078;12.108;2023-04-07T14:10:40;13.50;83.40
37242;DHT22;23135;51.078;12.108;2023-04-07T14:13:06;13.60;84.30
37242;DHT22;23135;51.078;12.108;2023-04-07T14:15:32;13.40;83.80
37242;DHT22;23135;51.078;12.108;2023-04-07T14:17:58;13.20;83.50
37242;DHT22;23135;51.078;12.108;2023-04-07T14:20:25;13.00;84.10
37242;DHT22;23135;51.078;12.108;2023-04-07T14:22:50;12.80;84.90
37242;DHT22;23135;51.078;12.108;2023-04-07T14:25:16;12.60;84.90
37242;DHT22;23135;51.078;12.108;2023-04-07T14:27:42;12.40;85.00
37242;DHT22;23135;51.078;12.108;2023-04-07T14:30:08;12.30;85.00
37242;DHT22;23135;51.078;12.108;2023-04-07T14:32:34;12.20;85.20
37242;DHT22;23135;51.078;12.108;2023-04-07T14:34:59;12.20;85.30
37242;DHT22;23135;51.078;12.108;2023-04-07T14:37:27;12.10;86.50
37242;DHT22;23135;51.078;12.108;2023-04-07T14:39:52;12.10;83.60
37242;DHT22;23135;51.078;12.108;2023-04-07T14:42:18;12.00;83.50
37242;DHT22;23135;51.078;12.108;2023-04-07T14:44:44;11.90;87.00
37242;DHT22;23135;51.078;12.108;2023-04-07T14:47:10;11.70;86.40
37242;DHT22;23135;51.078;12.108;2023-04-07T14:49:35;11.60;85.30
37242;DHT22;23135;51.078;12.108;2023-04-07T14:52:02;11.50;86.70
37242;DHT22;23135;51.078;12.108;2023-04-07T14:54:28;11.50;87.20
37242;DHT22;23135;51.078;12.108;2023-04-07T14:56:54;11.60;84.90
37242;DHT22;23135;51.078;12.108;2023-04-07T14:59:21;11.80;87.20
37242;DHT22;23135;51.078;12.108;2023-04-07T15:01:46;11.90;87.20
37242;DHT22;23135;51.078;12.108;2023-04-07T15:04:12;12.00;84.50
37242;DHT22;23135;51.078;12.108;2023-04-07T15:06:41;12.20;84.90
37242;DHT22;23135;51.078;12.108;2023-04-07T15:09:09;12.50;83.60
37242;DHT22;23135;51.078;12.108;2023-04-07T15:11:36;12.70;84.70
37242;DHT22;23135;51.078;12.108;2023-04-07T15:14:02;12.70;86.00
37242;DHT22;23135;51.078;12.108;2023-04-07T15:16:28;12.60;86.10
37242;DHT22;23135;51.078;12.108;2023-04-07T15:18:54;12.40;87.80
37242;DHT22;23135;51.078;12.108;2023-04-07T15:21:19;12.30;86.90
37242;DHT22;23135;51.078;12.108;2023-04-07T15:23:45;12.40;86.80
37242;DHT22;23135;51.078;12.108;2023-04-07T15:26:11;12.50;83.80
37242;DHT22;23135;51.078;12.108;2023-04-07T15:28:37;12.40;82.10
37242;DHT22;23135;51.078;12.108;2023-04-07T15:31:04;12.40;82.40
37242;DHT22;23135;51.078;12.108;2023-04-07T15:33:34;12.50;82.50